Terminal Aerodrome Forecast
Issued by NWS Tampa Bay Area, FL

Home | Current Version | Previous Version | Text Only | Print | Product List | Glossary On
Versions: 1 2 3 4 5 6 7 8 9 10 11 12 13 14 15 16 17 18 19 20 21 22 23 24 25 26 27 28 29 30 31 32 33 34 35 36 37 38
000
FTUS42 KTBW 272336
TAFTPA
TAF
KTPA 272336Z 2800/2824 28013G20KT P6SM SCT019 BKN100
      TEMPO 2800/2802 BKN019
     FM280400 30009KT P6SM BKN250
     FM281800 31013KT P6SM FEW250
     FM282300 32009KT P6SM FEW250=

USA.gov is the U.S. government's official web portal to all federal, state and local government web resources and services.